createdAt,value
2022-12-08T00:02:59.219Z,11.77
2022-12-08T00:08:21.401Z,11.80
2022-12-08T00:13:24.811Z,12.90
2022-12-08T00:18:28.179Z,12.47
2022-12-08T00:23:32.953Z,12.65
2022-12-08T00:28:36.747Z,12.82
2022-12-08T00:33:40.279Z,14.33
2022-12-08T00:38:47.213Z,13.57
2022-12-08T00:43:50.545Z,14.63
2022-12-08T00:48:53.886Z,14.18
2022-12-08T00:53:58.563Z,15.93
2022-12-08T00:59:02.437Z,14.05
2022-12-08T01:04:06.301Z,13.50
2022-12-08T01:09:12.395Z,13.90
2022-12-08T01:14:15.729Z,13.40
2022-12-08T01:19:19.454Z,13.98
2022-12-08T01:24:24.247Z,15.00
2022-12-08T01:29:28.381Z,13.27
2022-12-08T01:34:31.793Z,14.90
2022-12-08T01:39:36.644Z,15.90
2022-12-08T01:45:05.412Z,14.75
2022-12-08T01:50:12.140Z,12.90
2022-12-08T01:55:21.081Z,13.18
2022-12-08T02:00:25.027Z,13.32
2022-12-08T02:05:30.684Z,12.65
2022-12-08T02:10:36.968Z,12.70
2022-12-08T02:15:48.467Z,13.02
2022-12-08T02:20:58.745Z,14.13
2022-12-08T02:26:40.971Z,13.88
2022-12-08T02:31:58.542Z,15.30
2022-12-08T02:37:10.535Z,14.07
2022-12-08T02:42:22.104Z,13.73
2022-12-08T02:47:28.156Z,14.55
2022-12-08T02:52:44.247Z,12.82
2022-12-08T02:58:15.176Z,14.55
2022-12-08T03:03:27.002Z,13.85
2022-12-08T03:08:35.521Z,14.10
2022-12-08T03:13:43.077Z,12.80
2022-12-08T03:18:49.838Z,13.02
2022-12-08T03:23:58.040Z,13.07
2022-12-08T03:29:01.680Z,12.75
2022-12-08T03:34:06.549Z,12.95
2022-12-08T03:39:11.429Z,13.73
2022-12-08T03:44:14.987Z,14.40
2022-12-08T03:49:18.323Z,14.02
2022-12-08T03:54:24.123Z,15.83
2022-12-08T03:59:27.742Z,16.08
2022-12-08T04:04:31.255Z,18.17
2022-12-08T04:09:35.913Z,16.38
2022-12-08T04:14:39.211Z,14.70
2022-12-08T04:19:42.544Z,14.35
2022-12-08T04:24:47.289Z,12.87
2022-12-08T04:29:50.641Z,12.70
2022-12-08T04:34:53.945Z,13.53
2022-12-08T04:39:58.628Z,14.15
2022-12-08T04:45:01.912Z,15.07
2022-12-08T04:50:06.559Z,13.98
2022-12-08T04:55:11.712Z,15.50
2022-12-08T05:00:15.974Z,14.70
2022-12-08T05:05:19.377Z,13.73
2022-12-08T05:10:24.408Z,14.77
2022-12-08T05:15:27.756Z,16.13
2022-12-08T05:20:31.049Z,17.80
2022-12-08T05:25:35.795Z,18.00
2022-12-08T05:30:39.143Z,15.90
2022-12-08T05:35:43.008Z,14.90
2022-12-08T05:40:47.710Z,15.30
2022-12-08T05:45:51.406Z,15.60
2022-12-08T05:50:54.968Z,15.20
2022-12-08T05:55:59.793Z,15.85
2022-12-08T06:01:04.329Z,16.13
2022-12-08T06:06:07.964Z,15.73
2022-12-08T06:11:19.128Z,16.13
2022-12-08T06:16:22.572Z,18.83
2022-12-08T06:21:26.227Z,19.60
2022-12-08T06:26:30.905Z,19.58
2022-12-08T06:31:34.309Z,22.83
2022-12-08T06:36:37.702Z,22.37
2022-12-08T06:41:56.189Z,24.50
2022-12-08T06:46:59.559Z,22.67
2022-12-08T06:52:02.861Z,21.92
2022-12-08T06:57:07.763Z,50.70
2022-12-08T07:02:11.632Z,47.30
2022-12-08T07:07:15.052Z,39.78
2022-12-08T07:12:19.708Z,36.00
2022-12-08T07:17:23.160Z,50.15
2022-12-08T07:22:26.613Z,41.50
2022-12-08T07:27:31.341Z,45.42
2022-12-08T07:32:34.966Z,33.40
2022-12-08T07:37:39.076Z,24.17
2022-12-08T07:42:43.751Z,26.10
2022-12-08T07:47:47.024Z,21.13
2022-12-08T07:52:50.486Z,23.48
2022-12-08T07:57:55.200Z,24.65
2022-12-08T08:02:58.840Z,23.30
2022-12-08T08:08:02.300Z,27.50
2022-12-08T08:13:07.206Z,21.27
2022-12-08T08:18:10.515Z,20.50
2022-12-08T08:23:13.789Z,18.73
2022-12-08T08:28:18.774Z,20.23
2022-12-08T08:33:22.276Z,19.73
2022-12-08T08:38:25.864Z,18.67
2022-12-08T08:43:36.016Z,17.87
2022-12-08T08:48:40.995Z,17.83
2022-12-08T08:53:44.843Z,17.73
2022-12-08T08:58:51.281Z,17.90
2022-12-08T09:03:55.288Z,16.70
2022-12-08T09:08:58.719Z,17.45
2022-12-08T09:14:03.387Z,16.90
2022-12-08T09:19:06.787Z,17.20
2022-12-08T09:24:15.653Z,16.00
2022-12-08T09:29:20.348Z,16.73
2022-12-08T09:34:23.673Z,16.92
2022-12-08T09:39:27.154Z,15.30
2022-12-08T09:44:50.667Z,14.10
2022-12-08T09:55:02.574Z,13.57
2022-12-08T10:00:09.261Z,15.40
2022-12-08T10:05:15.889Z,13.93
2022-12-08T10:10:30.422Z,13.50
2022-12-08T10:15:51.037Z,15.00
2022-12-08T10:20:55.584Z,18.13
2022-12-08T10:26:03.571Z,14.00
2022-12-08T10:31:08.347Z,14.23
2022-12-08T10:36:12.419Z,18.40
2022-12-08T10:41:18.221Z,13.93
2022-12-08T10:46:25.898Z,13.70
2022-12-08T10:51:31.146Z,14.20
2022-12-08T10:56:35.029Z,13.52
2022-12-08T11:01:41.534Z,14.10
2022-12-08T11:06:45.867Z,17.25
2022-12-08T11:11:51.435Z,14.23
2022-12-08T11:17:03.635Z,12.52
2022-12-08T11:22:22.936Z,13.50
2022-12-08T11:27:26.486Z,13.30
2022-12-08T11:32:31.339Z,13.63
2022-12-08T11:37:40.856Z,13.77
2022-12-08T12:03:22.953Z,18.17
2022-12-08T12:08:41.226Z,15.93
2022-12-08T12:14:02.329Z,15.77
2022-12-08T12:29:31.118Z,20.08
2022-12-08T12:34:38.970Z,17.42
2022-12-08T12:39:51.093Z,16.25
2022-12-08T12:45:13.321Z,15.73
2022-12-08T12:50:45.853Z,15.93
2022-12-08T12:55:56.428Z,17.75
2022-12-08T13:01:33.308Z,16.13
2022-12-08T13:06:41.856Z,17.10
2022-12-08T13:11:51.495Z,16.98
2022-12-08T13:16:56.769Z,16.48
2022-12-08T13:22:02.697Z,18.00
2022-12-08T13:27:35.580Z,18.02
2022-12-08T13:38:26.670Z,18.85
2022-12-08T13:43:47.693Z,18.30
2022-12-08T13:59:54.009Z,19.92
2022-12-08T14:10:27.804Z,20.80
2022-12-08T14:15:37.538Z,20.60
2022-12-08T14:21:18.785Z,20.87
2022-12-08T14:26:07.956Z,19.33
2022-12-08T14:31:14.235Z,23.83
2022-12-08T14:36:18.173Z,30.30
2022-12-08T14:41:27.200Z,26.90
2022-12-08T14:46:30.760Z,31.02
2022-12-08T14:51:35.238Z,26.92
2022-12-08T14:56:40.937Z,28.00
2022-12-08T15:01:45.266Z,31.35
2022-12-08T15:06:52.731Z,27.45
2022-12-08T15:12:03.351Z,27.07
2022-12-08T15:17:32.691Z,24.77
2022-12-08T15:22:36.193Z,25.17
2022-12-08T15:27:49.796Z,25.10
2022-12-08T15:32:56.041Z,28.52
2022-12-08T15:37:59.750Z,24.73
2022-12-08T15:43:06.881Z,27.05
2022-12-08T15:48:17.386Z,29.45
2022-12-08T15:53:21.115Z,28.77
2022-12-08T16:09:19.037Z,28.03
2022-12-08T16:15:23.436Z,33.10
2022-12-08T16:19:47.656Z,33.35
2022-12-08T16:24:50.988Z,34.35
2022-12-08T16:29:56.593Z,36.70
2022-12-08T16:35:00.008Z,38.17
2022-12-08T16:40:03.715Z,38.57
2022-12-08T16:45:11.605Z,37.58
2022-12-08T16:50:17.493Z,48.88
2022-12-08T16:55:21.305Z,32.75
2022-12-08T17:00:27.908Z,29.37
2022-12-08T17:05:31.743Z,33.60
2022-12-08T17:10:38.608Z,39.42
2022-12-08T17:15:43.396Z,32.43
2022-12-08T17:20:47.199Z,26.42
2022-12-08T17:25:59.448Z,28.73
2022-12-08T17:31:09.250Z,23.30
2022-12-08T17:36:14.803Z,26.67
2022-12-08T17:41:18.110Z,30.35
2022-12-08T17:46:23.698Z,36.63
2022-12-08T17:51:27.163Z,40.65
2022-12-08T17:56:30.437Z,42.37
2022-12-08T18:01:35.379Z,36.70
2022-12-08T18:06:39.864Z,36.03
2022-12-08T18:11:44.828Z,35.85
2022-12-08T18:16:49.998Z,35.00
2022-12-08T18:21:53.665Z,31.05
2022-12-08T18:26:57.818Z,32.47
2022-12-08T18:32:02.556Z,30.77
2022-12-08T18:37:07.418Z,36.47
2022-12-08T18:42:23.831Z,41.33
2022-12-08T18:47:28.510Z,33.65
2022-12-08T18:52:33.354Z,34.40
2022-12-08T18:57:39.199Z,33.40
2022-12-08T19:02:44.397Z,33.17
2022-12-08T19:07:47.879Z,32.93
2022-12-08T19:12:51.476Z,31.13
2022-12-08T19:17:56.454Z,30.83
2022-12-08T19:22:59.733Z,32.83
2022-12-08T19:28:03.066Z,30.75
2022-12-08T19:33:07.787Z,28.97
2022-12-08T19:38:11.419Z,34.20
2022-12-08T19:43:47.137Z,30.77
2022-12-08T19:48:51.988Z,29.33
2022-12-08T19:53:55.357Z,29.95
2022-12-08T19:58:58.823Z,29.63
2022-12-08T20:04:03.539Z,32.63
2022-12-08T20:09:07.387Z,35.95
2022-12-08T20:14:11.440Z,28.88
2022-12-08T20:19:16.233Z,27.50
2022-12-08T20:24:20.118Z,30.00
2022-12-08T20:29:23.442Z,28.87
2022-12-08T20:34:28.194Z,31.10
2022-12-08T20:39:31.511Z,24.10
2022-12-08T20:44:35.023Z,25.80
2022-12-08T20:49:39.997Z,25.40
2022-12-08T20:54:43.428Z,24.25
2022-12-08T20:59:46.919Z,26.10
2022-12-08T21:04:51.878Z,27.80
2022-12-08T21:09:55.361Z,25.20
2022-12-08T21:14:58.735Z,24.42
2022-12-08T21:20:03.618Z,25.70
2022-12-08T21:25:08.226Z,26.75
2022-12-08T21:30:12.726Z,26.83
2022-12-08T21:35:17.986Z,29.17
2022-12-08T21:40:21.375Z,28.88
2022-12-08T21:45:24.837Z,28.15
2022-12-08T21:50:29.688Z,27.55
2022-12-08T21:55:33.048Z,27.10
2022-12-08T22:00:36.597Z,29.98
2022-12-08T22:05:41.455Z,29.63
2022-12-08T22:10:48.930Z,29.37
2022-12-08T22:15:57.653Z,31.05
2022-12-08T22:21:02.567Z,31.10
2022-12-08T22:26:07.088Z,31.57
2022-12-08T22:31:12.051Z,30.55
2022-12-08T22:36:18.988Z,33.28
2022-12-08T22:41:23.838Z,32.13
2022-12-08T22:46:28.885Z,33.87
2022-12-08T22:51:36.364Z,32.10
2022-12-08T22:56:39.876Z,32.08
2022-12-08T23:01:43.346Z,30.75
2022-12-08T23:06:48.234Z,29.03
2022-12-08T23:11:51.586Z,29.77
2022-12-08T23:16:55.235Z,31.77
2022-12-08T23:22:00.349Z,29.38
2022-12-08T23:27:03.684Z,29.15
2022-12-08T23:32:07.512Z,28.77
2022-12-08T23:37:12.351Z,29.42
2022-12-08T23:42:15.882Z,27.77
2022-12-08T23:47:19.267Z,28.85
2022-12-08T23:52:24.054Z,29.57
2022-12-08T23:57:27.377Z,29.20
